Terminal Aerodrome Forecast
Issued by NWS

Home | Current Version | Previous Version | Graphics & Text | Print | Product List | Glossary Off
Versions: 1 2 3 4 5 6 7 8 9 10 11 12 13 14 15 16

340
FTUS43 KMPX 250520
TAFRWF
TAF
KRWF 250520Z 2506/2606 06009KT P6SM OVC013
     FM251000 06009KT P6SM OVC009
     FM251500 07012G18KT P6SM OVC015=

USA.gov is the U.S. government's official web portal to all federal, state and local government web resources and services.